Time;durP1;ratioP1;P1;durP2;ratioP2;P2;SDS_P1;SDS_P2;PMS_P1;PMS_P2;Temp;Humidity;BMP_temperature;BMP_pressure;BME280_temperature;BME280_humidity;BME280_pressure;Samples;Min_cycle;Max_cycle;Signal;HPM_P1;HPM_P2
2023/07/20 00:01:25;;;;;;;167.75;117.60;;;;;;;;;;5002617;28;20608;-56
2023/07/20 00:03:54;;;;;;;177.38;22.10;;;;;;;;;;4997443;28;20029;-56
2023/07/20 00:06:24;;;;;;;247.43;214.45;;;;;;;;;;5001637;28;20419;-57
2023/07/20 00:08:50;;;;;;;183.77;59.80;;;;;;;;;;5000276;28;20526;-57
2023/07/20 00:11:15;;;;;;;104.65;22.35;;;;;;;;;;5001649;28;20042;-56
2023/07/20 00:13:41;;;;;;;119.82;11.07;;;;;;;;;;5002431;28;20028;-58
2023/07/20 00:16:06;;;;;;;167.83;118.50;;;;;;;;;;5001783;28;20574;-54
2023/07/20 00:18:31;;;;;;;276.10;233.18;;;;;;;;;;5001923;28;20249;-57
2023/07/20 00:20:57;;;;;;;295.70;165.27;;;;;;;;;;5000855;28;20046;-55
2023/07/20 00:23:22;;;;;;;111.27;17.07;;;;;;;;;;5000775;28;20103;-56
2023/07/20 00:25:48;;;;;;;141.23;12.00;;;;;;;;;;5001037;28;20104;-56
2023/07/20 00:28:13;;;;;;;222.23;192.68;;;;;;;;;;5001568;28;20034;-58
2023/07/20 00:30:38;;;;;;;105.80;21.80;;;;;;;;;;5001991;28;20041;-55
2023/07/20 00:33:03;;;;;;;104.73;29.50;;;;;;;;;;5008340;28;20033;-55
2023/07/20 00:35:29;;;;;;;119.63;11.13;;;;;;;;;;5002369;28;20257;-58
2023/07/20 00:37:54;;;;;;;305.50;186.00;;;;;;;;;;5002537;28;20272;-57
2023/07/20 00:40:19;;;;;;;89.83;12.77;;;;;;;;;;5003107;28;20834;-57
2023/07/20 00:42:44;;;;;;;274.77;154.75;;;;;;;;;;5000681;28;20299;-56
2023/07/20 00:45:10;;;;;;;127.93;68.07;;;;;;;;;;4999890;28;20021;-58
2023/07/20 00:47:36;;;;;;;293.27;262.90;;;;;;;;;;5003102;28;20294;-58
2023/07/20 00:50:01;;;;;;;275.70;210.88;;;;;;;;;;5000266;28;20703;-58
2023/07/20 00:52:27;;;;;;;195.73;137.98;;;;;;;;;;5001068;28;20042;-57
2023/07/20 00:54:56;;;;;;;254.95;149.13;;;;;;;;;;5001291;28;20507;-55
2023/07/20 00:57:21;;;;;;;256.42;227.50;;;;;;;;;;5001557;28;20403;-56
2023/07/20 00:59:46;;;;;;;273.63;214.10;;;;;;;;;;5001874;28;20559;-57
2023/07/20 01:02:11;;;;;;;250.10;210.07;;;;;;;;;;5006831;28;20662;-57
2023/07/20 01:04:37;;;;;;;97.22;9.93;;;;;;;;;;5006504;28;20261;-57
2023/07/20 01:07:10;;;;;;;163.13;79.60;;;;;;;;;;5004389;28;20037;-55
2023/07/20 01:09:52;;;;;;;120.57;45.55;;;;;;;;;;5006172;28;20259;-57
2023/07/20 01:12:20;;;;;;;98.13;9.85;;;;;;;;;;5005326;28;20796;-57
2023/07/20 01:14:45;;;;;;;135.25;11.98;;;;;;;;;;5004585;28;20022;-57
2023/07/20 01:17:12;;;;;;;158.83;81.03;;;;;;;;;;5003335;28;20061;-59
2023/07/20 01:19:37;;;;;;;115.38;43.33;;;;;;;;;;5005205;28;20669;-56
2023/07/20 01:22:14;;;;;;;115.97;14.23;;;;;;;;;;5003090;28;20440;-59
2023/07/20 01:24:42;;;;;;;88.07;15.23;;;;;;;;;;5006988;28;20252;-58
2023/07/20 01:27:31;;;;;;;220.18;175.30;;;;;;;;;;5003284;28;20157;-57
2023/07/20 01:30:03;;;;;;;173.18;48.00;;;;;;;;;;5006221;28;20022;-55
2023/07/20 01:32:29;;;;;;;228.55;166.15;;;;;;;;;;5005199;28;20072;-56
2023/07/20 01:34:55;;;;;;;142.25;13.18;;;;;;;;;;5004400;28;20156;-57
2023/07/20 01:37:25;;;;;;;123.53;60.72;;;;;;;;;;5004223;28;20582;-56
2023/07/20 01:39:50;;;;;;;182.30;66.57;;;;;;;;;;5004189;28;20037;-57
2023/07/20 01:42:15;;;;;;;124.93;46.50;;;;;;;;;;5005989;28;20460;-55
2023/07/20 01:44:40;;;;;;;184.50;144.20;;;;;;;;;;5004816;28;20272;-55
2023/07/20 01:47:05;;;;;;;141.83;76.20;;;;;;;;;;5005339;28;20343;-57
2023/07/20 01:49:31;;;;;;;87.93;10.30;;;;;;;;;;5004436;28;20068;-57
2023/07/20 01:51:56;;;;;;;180.40;56.83;;;;;;;;;;5002347;28;20054;-55
2023/07/20 01:54:21;;;;;;;104.20;10.03;;;;;;;;;;5005385;28;20087;-56
2023/07/20 01:56:47;;;;;;;79.50;9.20;;;;;;;;;;5005176;28;20386;-57
2023/07/20 01:59:12;;;;;;;92.90;9.43;;;;;;;;;;5005813;28;20676;-56
2023/07/20 02:01:37;;;;;;;109.13;10.40;;;;;;;;;;5002664;28;20439;-58
2023/07/20 02:04:02;;;;;;;148.70;25.13;;;;;;;;;;5004137;28;20343;-56
2023/07/20 02:06:28;;;;;;;108.27;10.10;;;;;;;;;;5005548;28;20348;-56
2023/07/20 02:08:53;;;;;;;145.27;12.87;;;;;;;;;;5002158;28;20248;-55
2023/07/20 02:11:18;;;;;;;134.35;62.97;;;;;;;;;;5003137;28;20128;-56
2023/07/20 02:13:43;;;;;;;89.33;17.73;;;;;;;;;;5004729;28;20443;-57
2023/07/20 02:16:08;;;;;;;103.10;10.67;;;;;;;;;;5003010;28;20347;-57
2023/07/20 02:18:35;;;;;;;102.67;15.60;;;;;;;;;;5004717;28;20252;-58
2023/07/20 02:21:00;;;;;;;147.38;13.60;;;;;;;;;;5002525;28;20365;-58
2023/07/20 02:23:25;;;;;;;102.17;11.30;;;;;;;;;;5001969;28;20038;-57
2023/07/20 02:25:50;;;;;;;136.85;14.52;;;;;;;;;;5003229;28;20983;-58
2023/07/20 02:28:16;;;;;;;165.63;128.13;;;;;;;;;;5004798;28;20029;-57
2023/07/20 02:30:41;;;;;;;113.10;40.97;;;;;;;;;;5003859;28;20335;-57
2023/07/20 02:33:07;;;;;;;140.17;56.13;;;;;;;;;;5000620;28;20883;-56
2023/07/20 02:35:32;;;;;;;121.47;45.08;;;;;;;;;;5002086;28;20054;-58
2023/07/20 02:37:57;;;;;;;169.93;35.75;;;;;;;;;;5003628;28;20199;-56
2023/07/20 02:40:23;;;;;;;91.67;9.30;;;;;;;;;;5005548;28;20327;-54
2023/07/20 02:42:48;;;;;;;113.28;10.40;;;;;;;;;;5003416;28;20288;-56
2023/07/20 02:45:13;;;;;;;98.95;20.42;;;;;;;;;;5005339;28;20029;-57
2023/07/20 02:47:39;;;;;;;173.07;127.70;;;;;;;;;;5002984;28;20383;-55
2023/07/20 02:50:06;;;;;;;193.60;68.27;;;;;;;;;;5003682;28;20084;-56
2023/07/20 02:52:32;;;;;;;86.68;27.10;;;;;;;;;;5002091;28;20100;-57
2023/07/20 02:54:57;;;;;;;108.80;10.83;;;;;;;;;;5002780;28;20022;-57
2023/07/20 02:57:22;;;;;;;90.37;9.40;;;;;;;;;;5001394;28;20276;-56
2023/07/20 02:59:47;;;;;;;91.75;9.65;;;;;;;;;;5004132;28;20844;-57
2023/07/20 03:02:12;;;;;;;171.57;105.43;;;;;;;;;;5001848;28;20104;-57
2023/07/20 03:04:38;;;;;;;92.60;10.03;;;;;;;;;;5002602;28;20252;-57
2023/07/20 03:07:07;;;;;;;148.15;17.55;;;;;;;;;;5000209;28;20261;-55
2023/07/20 03:09:32;;;;;;;101.88;16.42;;;;;;;;;;5002700;28;20033;-56
2023/07/20 03:11:58;;;;;;;155.82;15.63;;;;;;;;;;5000120;28;20123;-57
2023/07/20 03:14:23;;;;;;;88.47;9.40;;;;;;;;;;5002934;28;20313;-57
2023/07/20 03:16:49;;;;;;;128.63;54.03;;;;;;;;;;5004132;28;20287;-58
2023/07/20 03:19:14;;;;;;;79.60;11.82;;;;;;;;;;5002092;28;20022;-57
2023/07/20 03:21:40;;;;;;;116.13;22.70;;;;;;;;;;5001462;28;20033;-55
2023/07/20 03:24:07;;;;;;;158.30;40.47;;;;;;;;;;5001455;28;20099;-57
2023/07/20 03:26:32;;;;;;;100.75;10.45;;;;;;;;;;5003508;28;20040;-55
2023/07/20 03:28:57;;;;;;;222.98;98.82;;;;;;;;;;5001833;28;20029;-56
2023/07/20 03:31:23;;;;;;;91.13;11.53;;;;;;;;;;5002240;28;20314;-55
2023/07/20 03:33:48;;;;;;;98.20;12.32;;;;;;;;;;5002679;28;20302;-56
2023/07/20 03:36:13;;;;;;;101.63;9.77;;;;;;;;;;5003305;28;20080;-56
2023/07/20 03:38:39;;;;;;;156.98;76.85;;;;;;;;;;5002093;28;20315;-58
2023/07/20 03:41:04;;;;;;;132.00;11.75;;;;;;;;;;5000433;28;20337;-57
2023/07/20 03:43:29;;;;;;;124.10;19.48;;;;;;;;;;5002865;28;20101;-57
2023/07/20 03:45:56;;;;;;;142.50;12.38;;;;;;;;;;5000758;28;20037;-56
2023/07/20 03:48:22;;;;;;;159.60;72.45;;;;;;;;;;5003061;28;20068;-57
2023/07/20 03:50:48;;;;;;;115.70;16.45;;;;;;;;;;5001943;28;20428;-60
2023/07/20 03:53:14;;;;;;;109.70;10.07;;;;;;;;;;4999466;28;20041;-58
2023/07/20 03:55:42;;;;;;;104.03;15.90;;;;;;;;;;5002026;28;20357;-58
2023/07/20 03:58:08;;;;;;;156.50;13.88;;;;;;;;;;5002691;28;20100;-57
2023/07/20 04:00:33;;;;;;;120.50;22.90;;;;;;;;;;5002433;28;20026;-57
2023/07/20 04:02:59;;;;;;;139.18;14.65;;;;;;;;;;5001559;28;20017;-58
2023/07/20 04:05:24;;;;;;;158.50;85.97;;;;;;;;;;5003911;28;20099;-57
2023/07/20 04:07:51;;;;;;;151.23;84.70;;;;;;;;;;5002193;28;20053;-58
2023/07/20 04:10:16;;;;;;;159.48;83.43;;;;;;;;;;5000110;28;20030;-58
2023/07/20 04:12:41;;;;;;;117.82;24.13;;;;;;;;;;5002749;28;20029;-57
2023/07/20 04:15:07;;;;;;;170.47;41.77;;;;;;;;;;5001609;28;20323;-56
2023/07/20 04:17:33;;;;;;;90.40;9.65;;;;;;;;;;5003248;28;20283;-57
2023/07/20 04:19:58;;;;;;;182.25;27.48;;;;;;;;;;5000961;28;20017;-58
2023/07/20 04:22:23;;;;;;;127.97;43.60;;;;;;;;;;5002882;28;20036;-58
2023/07/20 04:24:48;;;;;;;82.07;10.63;;;;;;;;;;5003178;28;20326;-57
2023/07/20 04:27:13;;;;;;;101.43;20.50;;;;;;;;;;4998519;28;20045;-57
2023/07/20 04:29:39;;;;;;;89.77;9.23;;;;;;;;;;5002304;28;20268;-58
2023/07/20 04:32:04;;;;;;;155.25;14.40;;;;;;;;;;5002019;28;21048;-58
2023/07/20 04:34:29;;;;;;;210.48;148.70;;;;;;;;;;5001371;28;20024;-57
2023/07/20 04:36:55;;;;;;;103.87;28.77;;;;;;;;;;5005406;28;20120;-59
2023/07/20 04:39:20;;;;;;;203.05;135.98;;;;;;;;;;5008737;28;20753;-59
2023/07/20 04:41:45;;;;;;;106.63;15.87;;;;;;;;;;5005943;28;20052;-56
2023/07/20 04:44:10;;;;;;;259.23;160.17;;;;;;;;;;5004982;28;20047;-58
2023/07/20 04:46:36;;;;;;;226.17;174.07;;;;;;;;;;5004059;28;20073;-57
2023/07/20 04:49:01;;;;;;;308.00;235.57;;;;;;;;;;5007108;28;20375;-56
2023/07/20 04:51:27;;;;;;;172.90;109.65;;;;;;;;;;5005406;28;20329;-56
2023/07/20 04:53:52;;;;;;;247.45;195.25;;;;;;;;;;5006454;28;20036;-59
2023/07/20 04:56:17;;;;;;;187.80;134.83;;;;;;;;;;5004185;28;20148;-58
2023/07/20 04:58:42;;;;;;;227.48;190.40;;;;;;;;;;5007431;28;20348;-56
2023/07/20 05:01:08;;;;;;;294.15;212.82;;;;;;;;;;5002082;28;20037;-57
2023/07/20 05:03:33;;;;;;;249.50;187.00;;;;;;;;;;5005385;28;20021;-56
2023/07/20 05:05:58;;;;;;;232.03;177.10;;;;;;;;;;5003961;28;20469;-57
2023/07/20 05:08:24;;;;;;;206.70;171.27;;;;;;;;;;5006381;28;20752;-56
2023/07/20 05:10:50;;;;;;;227.68;175.52;;;;;;;;;;5008638;28;20260;-57
2023/07/20 05:13:16;;;;;;;249.85;190.10;;;;;;;;;;5005885;28;20135;-59
2023/07/20 05:15:41;;;;;;;200.10;149.00;;;;;;;;;;5007117;28;20117;-58
2023/07/20 05:18:06;;;;;;;337.83;264.90;;;;;;;;;;5003295;28;20018;-59
2023/07/20 05:20:33;;;;;;;197.43;121.30;;;;;;;;;;5004024;28;20060;-59
2023/07/20 05:22:58;;;;;;;234.10;191.27;;;;;;;;;;5003777;28;20030;-57
2023/07/20 05:25:23;;;;;;;272.73;206.07;;;;;;;;;;5004445;28;20071;-60
2023/07/20 05:27:49;;;;;;;303.07;271.43;;;;;;;;;;5005404;28;20014;-59
2023/07/20 05:30:14;;;;;;;231.75;141.00;;;;;;;;;;5004492;28;20778;-57
2023/07/20 05:32:39;;;;;;;230.57;162.10;;;;;;;;;;5004981;28;20080;-59
2023/07/20 05:35:05;;;;;;;278.33;194.97;;;;;;;;;;5004301;28;20095;-57
2023/07/20 05:37:30;;;;;;;231.02;162.82;;;;;;;;;;5006743;28;20288;-58
2023/07/20 05:39:56;;;;;;;207.63;133.50;;;;;;;;;;5005162;28;20337;-59
2023/07/20 05:42:21;;;;;;;182.00;138.90;;;;;;;;;;5009710;28;20268;-57
2023/07/20 05:44:48;;;;;;;226.03;173.93;;;;;;;;;;5003619;28;20036;-57
2023/07/20 05:47:13;;;;;;;297.63;214.40;;;;;;;;;;5003977;28;21037;-59
2023/07/20 05:49:38;;;;;;;281.25;251.38;;;;;;;;;;5005792;28;20041;-58
2023/07/20 05:52:04;;;;;;;283.97;192.37;;;;;;;;;;5002784;28;20128;-58
2023/07/20 05:54:29;;;;;;;259.27;200.18;;;;;;;;;;5004508;28;20193;-61
2023/07/20 05:56:54;;;;;;;308.80;275.63;;;;;;;;;;5005863;28;20137;-57
2023/07/20 05:59:20;;;;;;;262.93;234.63;;;;;;;;;;5003291;28;20476;-60
2023/07/20 06:01:45;;;;;;;311.50;271.85;;;;;;;;;;5005411;28;20277;-59
2023/07/20 06:04:10;;;;;;;360.92;304.48;;;;;;;;;;5003711;28;20014;-57
2023/07/20 06:06:36;;;;;;;307.40;270.23;;;;;;;;;;5003746;28;20325;-58
2023/07/20 06:09:05;;;;;;;304.23;264.93;;;;;;;;;;5002500;28;20033;-57
2023/07/20 06:11:30;;;;;;;288.13;258.88;;;;;;;;;;5004901;28;20088;-58
2023/07/20 06:13:56;;;;;;;386.38;346.90;;;;;;;;;;5003932;28;20026;-57
2023/07/20 06:16:21;;;;;;;358.58;320.88;;;;;;;;;;5002537;28;20399;-58
2023/07/20 06:18:46;;;;;;;336.13;301.47;;;;;;;;;;5004656;28;20022;-59
2023/07/20 06:21:12;;;;;;;397.55;356.52;;;;;;;;;;5002172;28;20418;-57
2023/07/20 06:23:37;;;;;;;317.70;280.23;;;;;;;;;;5002793;28;20021;-57
2023/07/20 06:26:02;;;;;;;374.03;318.37;;;;;;;;;;5002212;28;20045;-58
2023/07/20 06:28:27;;;;;;;227.83;198.20;;;;;;;;;;5003410;28;20561;-57
2023/07/20 06:30:58;;;;;;;353.93;316.27;;;;;;;;;;5003584;28;20452;-60
2023/07/20 06:33:23;;;;;;;328.02;262.50;;;;;;;;;;5003704;28;20351;-58
2023/07/20 06:35:48;;;;;;;389.90;347.87;;;;;;;;;;5002823;28;20176;-59
2023/07/20 06:38:14;;;;;;;387.47;335.80;;;;;;;;;;5002911;28;20108;-57
2023/07/20 06:40:39;;;;;;;454.70;409.50;;;;;;;;;;5003617;28;20060;-59
2023/07/20 06:43:04;;;;;;;257.88;202.20;;;;;;;;;;5000092;28;20063;-59
2023/07/20 06:45:30;;;;;;;324.77;288.83;;;;;;;;;;5002783;28;20026;-59
2023/07/20 06:47:55;;;;;;;305.90;270.85;;;;;;;;;;5002475;28;20860;-59
2023/07/20 06:50:20;;;;;;;295.20;186.33;;;;;;;;;;5001688;28;20021;-59
2023/07/20 06:52:47;;;;;;;261.10;195.60;;;;;;;;;;5002355;28;20032;-58
2023/07/20 06:55:12;;;;;;;352.42;183.95;;;;;;;;;;4999817;28;20113;-59
2023/07/20 06:57:38;;;;;;;343.77;307.97;;;;;;;;;;5003471;28;20029;-59
2023/07/20 07:00:04;;;;;;;276.08;211.32;;;;;;;;;;5003753;28;20268;-58
2023/07/20 07:02:29;;;;;;;179.38;119.68;;;;;;;;;;5000930;28;20176;-60
2023/07/20 07:04:55;;;;;;;280.67;188.43;;;;;;;;;;5007254;28;20025;-60
2023/07/20 07:07:20;;;;;;;299.83;222.52;;;;;;;;;;5005213;28;20444;-59
2023/07/20 07:09:45;;;;;;;353.00;315.63;;;;;;;;;;5008587;28;20032;-60
2023/07/20 07:12:11;;;;;;;515.60;460.37;;;;;;;;;;5005689;28;20034;-59
2023/07/20 07:14:36;;;;;;;454.40;409.73;;;;;;;;;;5006962;28;20252;-59
2023/07/20 07:17:01;;;;;;;386.40;347.00;;;;;;;;;;5006489;28;20415;-58
2023/07/20 07:19:26;;;;;;;329.77;292.80;;;;;;;;;;5006694;28;20025;-59
2023/07/20 07:21:52;;;;;;;462.97;421.33;;;;;;;;;;5006710;28;20367;-60
2023/07/20 07:24:17;;;;;;;459.75;342.05;;;;;;;;;;5005675;28;20053;-60
2023/07/20 07:26:42;;;;;;;430.60;390.60;;;;;;;;;;5006625;28;20054;-59
2023/07/20 07:29:07;;;;;;;413.97;370.07;;;;;;;;;;5005816;28;20018;-59
2023/07/20 07:31:34;;;;;;;442.97;401.63;;;;;;;;;;5006121;28;20790;-59
2023/07/20 07:33:59;;;;;;;432.15;387.15;;;;;;;;;;5005654;28;20040;-58
2023/07/20 07:36:25;;;;;;;486.80;443.27;;;;;;;;;;5004535;28;20029;-59
2023/07/20 07:38:50;;;;;;;482.65;436.65;;;;;;;;;;5009279;28;20076;-60
2023/07/20 07:41:15;;;;;;;447.63;404.70;;;;;;;;;;5004544;28;20214;-60
2023/07/20 07:43:41;;;;;;;471.92;429.02;;;;;;;;;;5006458;28;20056;-60
2023/07/20 07:46:06;;;;;;;449.73;405.15;;;;;;;;;;5005519;28;20555;-61
2023/07/20 07:48:31;;;;;;;546.83;495.67;;;;;;;;;;5005256;28;20045;-60
2023/07/20 07:50:57;;;;;;;523.97;470.90;;;;;;;;;;5004936;28;20281;-60
2023/07/20 07:53:22;;;;;;;522.10;467.13;;;;;;;;;;5003378;28;20418;-60
2023/07/20 07:55:47;;;;;;;435.93;399.43;;;;;;;;;;5001882;28;20381;-58
2023/07/20 07:58:13;;;;;;;528.22;477.17;;;;;;;;;;5004543;28;20710;-59
2023/07/20 08:00:38;;;;;;;533.97;486.70;;;;;;;;;;5005275;28;20041;-57
2023/07/20 08:03:04;;;;;;;556.47;506.67;;;;;;;;;;5006096;28;20410;-59
2023/07/20 08:05:29;;;;;;;566.13;513.83;;;;;;;;;;4998588;28;20409;-59
2023/07/20 08:07:54;;;;;;;476.13;432.40;;;;;;;;;;5002996;28;20260;-59
2023/07/20 08:10:19;;;;;;;313.23;225.70;;;;;;;;;;5006878;28;20474;-58
2023/07/20 08:12:45;;;;;;;455.03;401.73;;;;;;;;;;5011449;28;20306;-60
2023/07/20 08:15:11;;;;;;;477.70;429.83;;;;;;;;;;5004108;28;20310;-58
2023/07/20 08:17:36;;;;;;;416.70;274.80;;;;;;;;;;5006476;28;20125;-59
2023/07/20 08:20:01;;;;;;;269.67;144.83;;;;;;;;;;5006734;28;20083;-59
2023/07/20 08:22:27;;;;;;;272.87;67.40;;;;;;;;;;5006679;28;20160;-58
2023/07/20 08:24:52;;;;;;;364.98;328.55;;;;;;;;;;5006883;28;20362;-58
2023/07/20 08:27:17;;;;;;;497.40;262.80;;;;;;;;;;5006153;28;20033;-58
2023/07/20 08:29:43;;;;;;;467.10;394.88;;;;;;;;;;5006535;28;20033;-58
2023/07/20 08:32:08;;;;;;;475.33;430.50;;;;;;;;;;5005533;28;20034;-57
2023/07/20 08:34:33;;;;;;;493.17;443.98;;;;;;;;;;5005825;28;20260;-56
2023/07/20 08:36:59;;;;;;;508.85;461.30;;;;;;;;;;5006690;28;20168;-56
2023/07/20 08:39:24;;;;;;;453.10;386.17;;;;;;;;;;5007634;28;20025;-57
2023/07/20 08:41:50;;;;;;;487.10;440.43;;;;;;;;;;5005908;28;20045;-56
2023/07/20 08:44:15;;;;;;;438.98;387.05;;;;;;;;;;5006576;28;20049;-57
2023/07/20 08:46:40;;;;;;;524.38;412.08;;;;;;;;;;5007689;28;20028;-57
2023/07/20 08:49:06;;;;;;;510.13;464.67;;;;;;;;;;5006702;28;20021;-57
2023/07/20 08:51:31;;;;;;;607.88;551.75;;;;;;;;;;5004987;28;20084;-55
2023/07/20 08:53:57;;;;;;;442.83;399.52;;;;;;;;;;5006264;28;20329;-56
2023/07/20 08:56:24;;;;;;;902.03;379.08;;;;;;;;;;5005251;28;20026;-54
2023/07/20 08:58:51;;;;;;;487.83;436.75;;;;;;;;;;5008148;28;20337;-57
2023/07/20 09:01:17;;;;;;;496.33;444.15;;;;;;;;;;5004168;28;20168;-57
2023/07/20 09:03:44;;;;;;;390.35;316.33;;;;;;;;;;5006568;28;20589;-57
2023/07/20 09:06:09;;;;;;;572.67;521.85;;;;;;;;;;5007179;28;20094;-56
2023/07/20 09:08:37;;;;;;;482.30;435.47;;;;;;;;;;5003873;28;20025;-56
2023/07/20 09:11:03;;;;;;;460.30;412.95;;;;;;;;;;5005769;28;20434;-55
2023/07/20 09:13:28;;;;;;;445.33;400.00;;;;;;;;;;5003537;28;20032;-55
2023/07/20 09:15:54;;;;;;;433.30;392.03;;;;;;;;;;5007296;28;20044;-57
2023/07/20 09:18:27;;;;;;;609.20;552.17;;;;;;;;;;5007678;28;20040;-57
2023/07/20 09:20:53;;;;;;;458.20;415.77;;;;;;;;;;5002755;28;20029;-57
2023/07/20 09:23:19;;;;;;;431.75;385.33;;;;;;;;;;5003981;28;20286;-55
2023/07/20 09:25:45;;;;;;;571.97;475.20;;;;;;;;;;5012182;28;20033;-55
2023/07/20 09:28:11;;;;;;;274.60;200.27;;;;;;;;;;5007507;28;20260;-57
2023/07/20 09:30:36;;;;;;;466.38;354.92;;;;;;;;;;5005661;28;20318;-55
2023/07/20 09:33:01;;;;;;;376.17;154.47;;;;;;;;;;5006927;28;20040;-56
2023/07/20 09:35:27;;;;;;;549.97;400.60;;;;;;;;;;5005924;28;21309;-56
2023/07/20 09:37:59;;;;;;;382.42;344.70;;;;;;;;;;5004465;28;20268;-57
2023/07/20 09:40:25;;;;;;;413.65;372.02;;;;;;;;;;5007484;28;20030;-58
2023/07/20 09:42:52;;;;;;;430.05;380.80;;;;;;;;;;5005061;28;20431;-57
2023/07/20 09:45:17;;;;;;;478.45;428.10;;;;;;;;;;5005123;28;20034;-56
2023/07/20 09:47:42;;;;;;;417.13;376.10;;;;;;;;;;5004403;28;20077;-56
2023/07/20 09:50:11;;;;;;;477.92;433.38;;;;;;;;;;5003283;28;20372;-56
2023/07/20 09:52:38;;;;;;;565.70;513.05;;;;;;;;;;5005692;28;20026;-55
2023/07/20 09:55:03;;;;;;;396.75;355.48;;;;;;;;;;5007819;28;20014;-57
2023/07/20 09:57:29;;;;;;;483.90;386.65;;;;;;;;;;5003981;28;20065;-57
2023/07/20 09:59:54;;;;;;;551.00;494.00;;;;;;;;;;5002971;28;20013;-55
2023/07/20 10:02:24;;;;;;;588.53;426.93;;;;;;;;;;5003596;28;20092;-55
2023/07/20 10:04:51;;;;;;;511.95;462.60;;;;;;;;;;5013605;28;20193;-57
2023/07/20 10:07:20;;;;;;;348.58;316.58;;;;;;;;;;5005028;28;20038;-55
2023/07/20 10:09:47;;;;;;;585.17;525.63;;;;;;;;;;5006614;28;20060;-59
2023/07/20 10:12:12;;;;;;;348.13;314.13;;;;;;;;;;5007320;28;20026;-57
2023/07/20 10:14:40;;;;;;;413.80;372.23;;;;;;;;;;5005220;28;20075;-56
2023/07/20 10:17:07;;;;;;;493.98;440.88;;;;;;;;;;5004642;28;20113;-58
2023/07/20 10:19:47;;;;;;;385.52;342.75;;;;;;;;;;5004930;28;20025;-55
2023/07/20 10:22:15;;;;;;;465.38;417.48;;;;;;;;;;5005737;28;20032;-55
2023/07/20 10:24:42;;;;;;;506.42;458.98;;;;;;;;;;5005596;28;20109;-56
2023/07/20 10:27:07;;;;;;;461.65;379.30;;;;;;;;;;5004245;28;20216;-58
2023/07/20 10:29:32;;;;;;;384.10;330.95;;;;;;;;;;5003949;28;20079;-55
2023/07/20 10:31:58;;;;;;;590.30;446.13;;;;;;;;;;5003839;28;20033;-58
2023/07/20 10:34:23;;;;;;;591.08;427.42;;;;;;;;;;5004090;28;20152;-57
2023/07/20 10:36:52;;;;;;;402.05;364.00;;;;;;;;;;5003695;28;20462;-56
2023/07/20 10:39:24;;;;;;;511.48;460.45;;;;;;;;;;5006777;28;20018;-56
2023/07/20 10:41:50;;;;;;;640.95;442.55;;;;;;;;;;5005080;28;20121;-57
2023/07/20 10:44:19;;;;;;;321.52;288.10;;;;;;;;;;5003341;28;20040;-57
2023/07/20 10:46:45;;;;;;;328.25;292.65;;;;;;;;;;5005048;28;20534;-56
2023/07/20 10:49:11;;;;;;;702.45;396.40;;;;;;;;;;5007609;28;20057;-56
2023/07/20 10:51:39;;;;;;;669.38;359.92;;;;;;;;;;5002535;28;21417;-55
2023/07/20 10:54:07;;;;;;;491.10;409.67;;;;;;;;;;5007254;28;20107;-57
2023/07/20 10:56:32;;;;;;;419.58;306.52;;;;;;;;;;5002818;28;20242;-57
2023/07/20 10:58:59;;;;;;;699.60;366.03;;;;;;;;;;5004420;28;20143;-58
2023/07/20 11:01:27;;;;;;;501.33;335.35;;;;;;;;;;5003410;28;20678;-57
2023/07/20 11:03:56;;;;;;;516.58;462.80;;;;;;;;;;5004481;28;20022;-57
2023/07/20 11:06:28;;;;;;;576.15;455.63;;;;;;;;;;5002905;28;20081;-56
2023/07/20 11:09:05;;;;;;;632.60;540.08;;;;;;;;;;5004832;28;20064;-56
2023/07/20 11:11:31;;;;;;;423.33;332.23;;;;;;;;;;5003914;28;20034;-57
2023/07/20 11:13:58;;;;;;;519.08;469.77;;;;;;;;;;5006367;28;20018;-57
2023/07/20 11:16:36;;;;;;;331.35;295.58;;;;;;;;;;5001639;28;20096;-55
2023/07/20 11:19:02;;;;;;;497.33;449.23;;;;;;;;;;5005298;28;20045;-56
2023/07/20 11:21:28;;;;;;;536.78;476.60;;;;;;;;;;5001630;28;20117;-53
2023/07/20 11:23:53;;;;;;;343.73;308.50;;;;;;;;;;5003790;28;20431;-55
2023/07/20 11:26:19;;;;;;;583.80;423.25;;;;;;;;;;5003191;28;20037;-54
2023/07/20 11:28:49;;;;;;;629.70;285.67;;;;;;;;;;5005480;28;20587;-55
2023/07/20 11:31:16;;;;;;;583.72;300.90;;;;;;;;;;5003620;28;20146;-58
2023/07/20 11:33:41;;;;;;;464.08;385.13;;;;;;;;;;5002062;28;20513;-58
2023/07/20 11:36:08;;;;;;;592.50;518.33;;;;;;;;;;5003689;28;20022;-59
2023/07/20 11:38:33;;;;;;;363.73;307.23;;;;;;;;;;5002224;28;20018;-58
2023/07/20 11:40:58;;;;;;;441.90;334.93;;;;;;;;;;5005217;28;20395;-56
2023/07/20 11:43:24;;;;;;;695.20;389.57;;;;;;;;;;5004858;28;20269;-57
2023/07/20 11:45:49;;;;;;;520.55;464.10;;;;;;;;;;5004376;28;20042;-58
2023/07/20 11:48:15;;;;;;;618.13;379.85;;;;;;;;;;5003014;28;20049;-58
2023/07/20 11:50:40;;;;;;;429.98;334.65;;;;;;;;;;5001941;28;20106;-58
2023/07/20 11:53:06;;;;;;;400.97;274.60;;;;;;;;;;5003629;28;20046;-57
2023/07/20 11:55:32;;;;;;;397.70;332.42;;;;;;;;;;5001924;28;20300;-56
2023/07/20 11:58:04;;;;;;;508.03;360.80;;;;;;;;;;5004916;28;20071;-58
2023/07/20 12:00:29;;;;;;;;;;;;;;;;;;5006413;28;20048;-58
2023/07/20 12:02:54;;;;;;;466.75;416.77;;;;;;;;;;5004474;28;19905;-58
2023/07/20 12:05:22;;;;;;;434.33;391.57;;;;;;;;;;5005341;28;20051;-59
2023/07/20 12:07:47;;;;;;;259.50;231.25;;;;;;;;;;5004541;28;20269;-58
2023/07/20 12:10:13;;;;;;;652.65;364.02;;;;;;;;;;5006258;28;20114;-58
2023/07/20 12:12:39;;;;;;;411.25;321.73;;;;;;;;;;5006498;28;20391;-58
2023/07/20 12:15:21;;;;;;;481.48;430.02;;;;;;;;;;5006466;28;20056;-58
2023/07/20 12:17:48;;;;;;;386.25;327.02;;;;;;;;;;5003104;28;20037;-57
2023/07/20 12:20:24;;;;;;;269.10;238.65;;;;;;;;;;5004709;28;20441;-60
2023/07/20 12:22:49;;;;;;;505.60;421.70;;;;;;;;;;5006688;28;20500;-58
2023/07/20 12:25:15;;;;;;;686.23;350.87;;;;;;;;;;5003376;28;20036;-58
2023/07/20 12:27:41;;;;;;;286.50;237.02;;;;;;;;;;5003717;28;20264;-57
2023/07/20 12:30:07;;;;;;;332.83;299.13;;;;;;;;;;5004113;28;20434;-58
2023/07/20 12:32:33;;;;;;;477.92;425.80;;;;;;;;;;5003173;28;20040;-58
2023/07/20 12:35:00;;;;;;;385.63;208.40;;;;;;;;;;5005926;28;20499;-56
2023/07/20 12:37:25;;;;;;;500.70;437.10;;;;;;;;;;5003990;28;20370;-58
2023/07/20 12:39:50;;;;;;;432.87;384.23;;;;;;;;;;5005560;28;20021;-58
2023/07/20 12:42:16;;;;;;;332.97;242.87;;;;;;;;;;5003889;28;20759;-58
2023/07/20 12:44:41;;;;;;;594.85;364.73;;;;;;;;;;5003759;28;20021;-57
2023/07/20 12:47:07;;;;;;;502.20;216.20;;;;;;;;;;5004630;28;20029;-55
2023/07/20 12:49:32;;;;;;;411.33;294.92;;;;;;;;;;5003507;28;20738;-57
2023/07/20 12:51:57;;;;;;;512.70;461.83;;;;;;;;;;5003457;28;20085;-59
2023/07/20 12:54:22;;;;;;;730.60;508.57;;;;;;;;;;5004414;28;20130;-57
2023/07/20 12:56:48;;;;;;;430.77;385.10;;;;;;;;;;5006408;28;20068;-57
2023/07/20 12:59:13;;;;;;;422.17;371.43;;;;;;;;;;5004324;28;20280;-58
2023/07/20 13:01:41;;;;;;;390.37;346.77;;;;;;;;;;5005176;28;20941;-57
2023/07/20 13:04:08;;;;;;;448.75;403.13;;;;;;;;;;5012350;28;20571;-57
2023/07/20 13:06:34;;;;;;;473.58;423.90;;;;;;;;;;5012041;28;20033;-57
2023/07/20 13:08:59;;;;;;;452.95;404.48;;;;;;;;;;5004944;28;20018;-59
2023/07/20 13:11:24;;;;;;;456.20;357.87;;;;;;;;;;5006940;28;20038;-56
2023/07/20 13:13:50;;;;;;;351.57;315.63;;;;;;;;;;5006458;28;20345;-57
2023/07/20 13:16:15;;;;;;;433.57;387.60;;;;;;;;;;5005882;28;20752;-57
2023/07/20 13:18:40;;;;;;;600.27;380.77;;;;;;;;;;5005981;28;20293;-58
2023/07/20 13:21:10;;;;;;;360.87;295.20;;;;;;;;;;5005263;28;20311;-58
2023/07/20 13:23:35;;;;;;;276.88;197.65;;;;;;;;;;5003925;28;20304;-59
2023/07/20 13:26:00;;;;;;;336.17;299.47;;;;;;;;;;5006721;28;20804;-59
2023/07/20 13:28:25;;;;;;;541.13;358.53;;;;;;;;;;5004865;28;20261;-56
2023/07/20 13:30:51;;;;;;;376.80;334.63;;;;;;;;;;5005230;28;20796;-59
2023/07/20 13:33:16;;;;;;;504.98;455.33;;;;;;;;;;5006279;28;20304;-57
2023/07/20 13:35:41;;;;;;;487.17;427.43;;;;;;;;;;5004533;28;20030;-57
2023/07/20 13:38:06;;;;;;;531.20;479.83;;;;;;;;;;5005769;28;20017;-57
2023/07/20 13:40:32;;;;;;;338.97;252.30;;;;;;;;;;5005206;28;20273;-58
2023/07/20 13:42:57;;;;;;;406.55;292.48;;;;;;;;;;5005290;28;20044;-58
2023/07/20 13:45:22;;;;;;;296.47;218.63;;;;;;;;;;5005713;28;20017;-57
2023/07/20 13:47:48;;;;;;;374.70;335.00;;;;;;;;;;5005133;28;20257;-58
2023/07/20 13:50:13;;;;;;;416.58;372.15;;;;;;;;;;5006625;28;20063;-58